Cumberland, MD (21501)

4:44 AM EST on December 03, 2016 (GMT -0500)
Mapleside | | Change Station

Elev 764 ft 39.64 °N, 78.75 °W | Updated 4 seconds ago

Overcast
Overcast
39.9 °F
Feels Like 40 °F
N
2.5
Wind Variable Wind from WNW
Gusts 4.9 mph

Today
High -- | Low -- °F
--% Chance of Precip.
Yesterday
High -- | Low -- °F
Precip. -- in
Pressure 30.14 in
Visibility 10.0 miles
Clouds Overcast 2600 ft
Windchill 40 °F
Dew Point 26 °F
Humidity 58%
Rainfall 0.00 in
Snow Depth Not available.
7:19 AM 4:50 PM
Waxing Crescent, 14% visible
METAR KHMZ 030935Z AUTO 28005KT 10SM OVC026 03/M03 A3014 RMK AO2 T00251028
Pressure 30.14 in
Visibility 10.0 miles
Clouds Overcast 2600 ft
Windchill 40 °F
Dew Point 26 °F
Humidity 58%
Rainfall 0.00 in
Snow Depth Not available.
7:19 AM 4:50 PM
Waxing Crescent, 14% visible
METAR KHMZ 030935Z AUTO 28005KT 10SM OVC026 03/M03 A3014 RMK AO2 T00251028

10-Day Weather Forecast

Almanac

Astronomy

Dec. 03, 2016 Rise Set
Actual Time
Civil Twilight
Nautical Twilight
Astronomical Twilight
Moon
Length of Visible Light
Length of Day
Tomorrow will be .
, % of the Moon is Illuminated

Today's Extremes

State Highs State Lows

Community

WunderPhotos

Upload Photos

1,955,434 photos uploaded!

WunderBlog® & News

Nearby

Air Quality

  Air Quality AQ Index Pollutant
Not available.

Snow Depth

Station Depth Elevation

Earthquake Activity

City Distance Mag. Time & Date
Minimum magnitude displayed is 2.5.

Coastal Water Temperatures

Place Temperature

Stations

Nearby Weather Stations

Station Location Temp. Windchill Dew Point Humidity Wind Precip. Elev Updated Type
                   

Watches & Warnings

There are currently no watches in effect.